createdAt,value
2023-04-10T00:00:12.158Z,0.50
2023-04-10T00:01:12.143Z,0.50
2023-04-10T00:02:12.185Z,0.50
2023-04-10T00:03:12.384Z,0.40
2023-04-10T00:04:12.225Z,0.34
2023-04-10T00:05:12.137Z,0.34
2023-04-10T00:06:12.110Z,0.34
2023-04-10T00:07:12.098Z,0.34
2023-04-10T00:08:12.121Z,0.35
2023-04-10T00:09:12.096Z,0.38
2023-04-10T00:10:12.080Z,0.43
2023-04-10T00:11:12.074Z,0.48
2023-04-10T00:12:12.062Z,0.50
2023-04-10T00:13:12.089Z,0.50
2023-04-10T00:14:12.048Z,0.50
2023-04-10T00:15:12.049Z,0.50
2023-04-10T00:16:12.209Z,0.51
2023-04-10T00:17:12.031Z,0.50
2023-04-10T00:18:12.028Z,0.50
2023-04-10T00:19:12.015Z,0.50
2023-04-10T00:20:12.009Z,0.51
2023-04-10T00:21:12.028Z,0.50
2023-04-10T00:22:11.995Z,0.51
2023-04-10T00:23:11.994Z,0.50
2023-04-10T00:24:11.984Z,0.50
2023-04-10T00:25:11.973Z,0.50
2023-04-10T00:26:11.998Z,0.51
2023-04-10T00:27:11.964Z,0.51
2023-04-10T00:28:11.945Z,0.50
2023-04-10T00:29:11.975Z,0.50
2023-04-10T00:30:11.946Z,0.50
2023-04-10T00:31:12.002Z,0.51
2023-04-10T00:32:11.944Z,0.50
2023-04-10T00:33:11.930Z,0.51
2023-04-10T00:34:11.919Z,0.51
2023-04-10T00:35:11.899Z,0.51
2023-04-10T00:36:11.957Z,0.51
2023-04-10T00:37:11.901Z,0.51
2023-04-10T00:38:11.882Z,0.51
2023-04-10T00:39:11.878Z,0.51
2023-04-10T00:40:11.870Z,0.51
2023-04-10T00:41:11.921Z,0.50
2023-04-10T00:42:11.859Z,0.51
2023-04-10T00:43:11.851Z,0.51
2023-04-10T00:44:11.843Z,0.51
2023-04-10T00:45:11.852Z,0.50
2023-04-10T00:46:11.877Z,0.50
2023-04-10T00:47:11.874Z,0.51
2023-04-10T00:48:11.852Z,0.51
2023-04-10T00:49:11.825Z,0.51
2023-04-10T00:50:11.810Z,0.51
2023-04-10T00:51:11.843Z,0.51
2023-04-10T00:52:11.823Z,0.51
2023-04-10T00:53:11.817Z,0.52
2023-04-10T00:54:11.855Z,0.52
2023-04-10T00:55:11.815Z,0.51
2023-04-10T00:56:11.844Z,0.50
2023-04-10T00:57:11.828Z,0.51
2023-04-10T00:58:11.851Z,0.50
2023-04-10T00:59:11.848Z,0.51
2023-04-10T01:00:11.847Z,0.51
2023-04-10T01:01:11.874Z,0.51
2023-04-10T01:02:11.949Z,0.52
2023-04-10T01:03:11.971Z,0.51
2023-04-10T01:04:11.996Z,0.51
2023-04-10T01:05:11.861Z,0.51
2023-04-10T01:06:11.861Z,0.50
2023-04-10T01:07:11.861Z,0.51
2023-04-10T01:08:11.878Z,0.50
2023-04-10T01:09:11.871Z,0.51
2023-04-10T01:10:11.876Z,0.53
2023-04-10T01:11:11.897Z,0.50
2023-04-10T01:12:11.881Z,0.52
2023-04-10T01:13:11.877Z,0.51
2023-04-10T01:14:11.898Z,0.52
2023-04-10T01:15:11.901Z,0.52
2023-04-10T01:16:11.894Z,0.51
2023-04-10T01:17:12.058Z,0.53
2023-04-10T01:18:11.942Z,0.53
2023-04-10T01:19:11.912Z,0.52
2023-04-10T01:20:11.921Z,0.52
2023-04-10T01:21:11.924Z,0.52
2023-04-10T01:22:12.042Z,0.53
2023-04-10T01:23:12.006Z,0.50
2023-04-10T01:24:11.947Z,0.51
2023-04-10T01:25:11.970Z,0.52
2023-04-10T01:26:11.972Z,0.50
2023-04-10T01:27:11.970Z,0.52
2023-04-10T01:28:11.955Z,0.53
2023-04-10T01:29:11.955Z,0.52
2023-04-10T01:30:11.991Z,0.51
2023-04-10T01:31:12.032Z,0.53
2023-04-10T01:32:11.968Z,0.51
2023-04-10T01:33:11.998Z,0.51
2023-04-10T01:34:12.012Z,0.52
2023-04-10T01:35:11.972Z,0.52
2023-04-10T01:36:11.994Z,0.51
2023-04-10T01:37:11.985Z,0.52
2023-04-10T01:38:11.994Z,0.52
2023-04-10T01:39:12.026Z,0.52
2023-04-10T01:40:12.007Z,0.51
2023-04-10T01:41:11.981Z,0.52
2023-04-10T01:42:11.980Z,0.50
2023-04-10T01:43:11.979Z,0.51
2023-04-10T01:44:12.035Z,0.50
2023-04-10T01:45:11.991Z,0.52
2023-04-10T01:46:12.015Z,0.52
2023-04-10T01:47:12.004Z,0.53
2023-04-10T01:48:12.024Z,0.52
2023-04-10T01:49:12.060Z,0.51
2023-04-10T01:50:12.021Z,0.52
2023-04-10T01:51:12.046Z,0.52
2023-04-10T01:52:12.014Z,0.53
2023-04-10T01:53:12.025Z,0.52
2023-04-10T01:54:12.036Z,0.52
2023-04-10T01:55:12.013Z,0.52
2023-04-10T01:56:12.050Z,0.51
2023-04-10T01:57:12.101Z,0.51
2023-04-10T01:58:12.024Z,0.52
2023-04-10T01:59:12.076Z,0.51
2023-04-10T02:00:12.027Z,0.51
2023-04-10T02:01:22.482Z,0.51
2023-04-10T02:02:12.134Z,0.52
2023-04-10T02:03:12.164Z,0.52
2023-04-10T02:04:12.044Z,0.52
2023-04-10T02:05:12.058Z,0.52
2023-04-10T02:06:12.011Z,0.51
2023-04-10T02:07:11.994Z,0.51
2023-04-10T02:08:11.996Z,0.52
2023-04-10T02:09:11.988Z,0.51
2023-04-10T02:10:11.966Z,0.51
2023-04-10T02:11:11.961Z,0.52
2023-04-10T02:12:11.956Z,0.51
2023-04-10T02:13:11.942Z,0.50
2023-04-10T02:14:11.956Z,0.51
2023-04-10T02:15:11.919Z,0.51
2023-04-10T02:16:11.939Z,0.51
2023-04-10T02:17:11.916Z,0.52
2023-04-10T02:18:11.900Z,0.51
2023-04-10T02:19:11.896Z,0.51
2023-04-10T02:20:11.888Z,0.52
2023-04-10T02:21:11.928Z,0.51
2023-04-10T02:22:11.878Z,0.52
2023-04-10T02:23:11.862Z,0.52
2023-04-10T02:24:11.875Z,0.52
2023-04-10T02:25:11.851Z,0.52
2023-04-10T02:26:11.843Z,0.52
2023-04-10T02:27:11.840Z,0.51
2023-04-10T02:28:11.838Z,0.52
2023-04-10T02:29:11.819Z,0.52
2023-04-10T02:30:11.807Z,0.53
2023-04-10T02:31:11.864Z,0.52
2023-04-10T02:32:11.803Z,0.52
2023-04-10T02:33:11.805Z,0.51
2023-04-10T02:34:11.799Z,0.52
2023-04-10T02:35:11.781Z,0.52
2023-04-10T02:36:11.819Z,0.51
2023-04-10T02:37:11.794Z,0.52
2023-04-10T02:38:11.763Z,0.51
2023-04-10T02:39:11.757Z,0.52
2023-04-10T02:40:11.778Z,0.52
2023-04-10T02:41:11.750Z,0.52
2023-04-10T02:42:11.741Z,0.51
2023-04-10T02:43:11.736Z,0.52
2023-04-10T02:44:11.720Z,0.51
2023-04-10T02:45:11.712Z,0.51
2023-04-10T02:46:11.775Z,0.50
2023-04-10T02:47:11.702Z,0.50
2023-04-10T02:48:11.708Z,0.51
2023-04-10T02:49:11.691Z,0.50
2023-04-10T02:50:11.685Z,0.52
2023-04-10T02:51:11.664Z,0.51
2023-04-10T02:52:11.673Z,0.51
2023-04-10T02:53:11.685Z,0.51
2023-04-10T02:54:11.658Z,0.51
2023-04-10T02:55:11.657Z,0.51
2023-04-10T02:56:11.648Z,0.51
2023-04-10T02:57:11.632Z,0.51
2023-04-10T02:58:13.818Z,0.51
2023-04-10T02:59:11.624Z,0.51
2023-04-10T03:00:11.622Z,0.51
2023-04-10T03:01:11.608Z,0.51
2023-04-10T03:02:11.694Z,0.51
2023-04-10T03:03:11.664Z,0.51
2023-04-10T03:04:11.735Z,0.50
2023-04-10T03:05:11.589Z,0.51
2023-04-10T03:06:11.573Z,0.51
2023-04-10T03:07:11.559Z,0.50
2023-04-10T03:08:11.560Z,0.52
2023-04-10T03:09:11.574Z,0.52
2023-04-10T03:10:11.540Z,0.51
2023-04-10T03:11:11.540Z,0.52
2023-04-10T03:12:11.534Z,0.51
2023-04-10T03:13:11.520Z,0.51
2023-04-10T03:14:11.517Z,0.52
2023-04-10T03:15:11.510Z,0.51
2023-04-10T03:16:11.561Z,0.51
2023-04-10T03:17:11.498Z,0.51
2023-04-10T03:18:11.548Z,0.51
2023-04-10T03:19:11.483Z,0.51
2023-04-10T03:20:11.468Z,0.52
2023-04-10T03:21:11.464Z,0.52
2023-04-10T03:22:11.454Z,0.52
2023-04-10T03:23:11.449Z,0.51
2023-04-10T03:24:11.448Z,0.51
2023-04-10T03:25:11.491Z,0.51
2023-04-10T03:26:11.432Z,0.51
2023-04-10T03:27:11.419Z,0.51
2023-04-10T03:28:11.417Z,0.51
2023-04-10T03:29:11.406Z,0.52
2023-04-10T03:30:11.402Z,0.51
2023-04-10T03:31:11.441Z,0.51
2023-04-10T03:32:11.386Z,0.51
2023-04-10T03:33:11.386Z,0.50
2023-04-10T03:34:11.369Z,0.51
2023-04-10T03:35:11.365Z,0.51
2023-04-10T03:36:11.422Z,0.52
2023-04-10T03:37:11.344Z,0.51
2023-04-10T03:38:11.347Z,0.52
2023-04-10T03:39:11.331Z,0.50
2023-04-10T03:40:11.348Z,0.51
2023-04-10T03:41:11.372Z,0.51
2023-04-10T03:42:11.322Z,0.51
2023-04-10T03:43:11.307Z,0.51
2023-04-10T03:44:11.297Z,0.51
2023-04-10T03:45:11.308Z,0.51
2023-04-10T03:46:11.285Z,0.51
2023-04-10T03:47:11.452Z,0.51
2023-04-10T03:48:11.280Z,0.50
2023-04-10T03:49:11.264Z,0.51
2023-04-10T03:50:11.281Z,0.51
2023-04-10T03:51:11.258Z,0.51
2023-04-10T03:52:11.243Z,0.51
2023-04-10T03:53:11.239Z,0.51
2023-04-10T03:54:11.229Z,0.51
2023-04-10T03:55:11.226Z,0.51
2023-04-10T03:56:11.214Z,0.52
2023-04-10T03:57:11.259Z,0.52
2023-04-10T03:58:11.259Z,0.52
2023-04-10T03:59:11.273Z,0.52
2023-04-10T04:00:11.296Z,0.51
2023-04-10T04:01:11.311Z,0.51
2023-04-10T04:02:11.456Z,0.52
2023-04-10T04:03:11.654Z,0.52
2023-04-10T04:04:11.722Z,0.51
2023-04-10T04:05:11.457Z,0.51
2023-04-10T04:06:11.398Z,0.52
2023-04-10T04:07:11.406Z,0.51
2023-04-10T04:08:11.415Z,0.52
2023-04-10T04:09:11.434Z,0.51
2023-04-10T04:10:11.462Z,0.51
2023-04-10T04:11:11.467Z,0.51
2023-04-10T04:12:11.471Z,0.52
2023-04-10T04:13:11.511Z,0.51
2023-04-10T04:14:11.504Z,0.52
2023-04-10T04:15:11.523Z,0.51
2023-04-10T04:16:11.593Z,0.52
2023-04-10T04:17:11.548Z,0.51
2023-04-10T04:18:11.559Z,0.52
2023-04-10T04:19:11.567Z,0.51
2023-04-10T04:20:11.585Z,0.52
2023-04-10T04:21:11.630Z,0.52
2023-04-10T04:22:11.615Z,0.52
2023-04-10T04:23:11.644Z,0.51
2023-04-10T04:24:11.640Z,0.51
2023-04-10T04:25:12.041Z,0.52
2023-04-10T04:26:11.690Z,0.52
2023-04-10T04:27:11.706Z,0.53
2023-04-10T04:28:11.710Z,0.53
2023-04-10T04:29:11.781Z,0.52
2023-04-10T04:30:11.757Z,0.53
2023-04-10T04:31:11.751Z,0.53
2023-04-10T04:32:11.836Z,0.52
2023-04-10T04:33:11.776Z,0.52
2023-04-10T04:34:11.793Z,0.52
2023-04-10T04:35:11.803Z,0.52
2023-04-10T04:36:11.871Z,0.53
2023-04-10T04:37:11.863Z,0.53
2023-04-10T04:38:11.862Z,0.52
2023-04-10T04:39:11.861Z,0.53
2023-04-10T04:40:12.467Z,0.53
2023-04-10T04:41:11.900Z,0.54
2023-04-10T04:42:11.923Z,0.54
2023-04-10T04:43:11.927Z,0.53
2023-04-10T04:44:11.938Z,0.53
2023-04-10T04:45:11.974Z,0.53
2023-04-10T04:46:12.009Z,0.54
2023-04-10T04:47:11.985Z,0.54
2023-04-10T04:48:11.988Z,0.53
2023-04-10T04:49:11.998Z,0.53
2023-04-10T04:50:12.012Z,0.54
2023-04-10T04:51:12.031Z,0.54
2023-04-10T04:52:12.052Z,0.53
2023-04-10T04:53:12.076Z,0.53
2023-04-10T04:54:12.108Z,0.53
2023-04-10T04:55:12.093Z,0.54
2023-04-10T04:56:12.114Z,0.54
2023-04-10T04:57:12.117Z,0.54
2023-04-10T04:58:12.130Z,0.53
2023-04-10T04:59:12.152Z,0.55
2023-04-10T05:00:12.152Z,0.54
2023-04-10T05:01:12.362Z,0.55
2023-04-10T05:02:12.307Z,0.53
2023-04-10T05:03:12.357Z,0.54
2023-04-10T05:04:12.372Z,0.54
2023-04-10T05:05:12.234Z,0.53
2023-04-10T05:06:12.244Z,0.54
2023-04-10T05:07:12.261Z,0.54
2023-04-10T05:08:12.311Z,0.53
2023-04-10T05:09:12.286Z,0.53
2023-04-10T05:10:12.279Z,0.55
2023-04-10T05:11:12.297Z,0.53
2023-04-10T05:12:12.308Z,0.54
2023-04-10T05:13:12.363Z,0.55
2023-04-10T05:14:12.346Z,0.53
2023-04-10T05:15:12.366Z,0.53
2023-04-10T05:16:12.450Z,0.53
2023-04-10T05:17:12.422Z,0.53
2023-04-10T05:18:12.436Z,0.54
2023-04-10T05:19:12.409Z,0.54
2023-04-10T05:20:12.424Z,0.54
2023-04-10T05:21:12.437Z,0.55
2023-04-10T05:22:12.452Z,0.55
2023-04-10T05:23:12.463Z,0.55
2023-04-10T05:24:12.465Z,0.54
2023-04-10T05:25:12.474Z,0.55
2023-04-10T05:26:12.483Z,0.55
2023-04-10T05:27:12.504Z,0.53
2023-04-10T05:28:12.515Z,0.54
2023-04-10T05:29:12.532Z,0.55
2023-04-10T05:30:12.540Z,0.54
2023-04-10T05:31:12.601Z,0.54
2023-04-10T05:32:12.561Z,0.54
2023-04-10T05:33:12.588Z,0.54
2023-04-10T05:34:12.592Z,0.55
2023-04-10T05:35:13.484Z,0.54
2023-04-10T05:36:12.752Z,0.54
2023-04-10T05:37:12.641Z,0.55
2023-04-10T05:38:12.631Z,0.54
2023-04-10T05:39:12.636Z,0.55
2023-04-10T05:40:12.649Z,0.55
2023-04-10T05:41:12.658Z,0.54
2023-04-10T05:42:12.667Z,0.54
2023-04-10T05:43:12.688Z,0.54
2023-04-10T05:44:12.697Z,0.54
2023-04-10T05:45:12.695Z,0.54
2023-04-10T05:46:12.720Z,0.54
2023-04-10T05:47:12.718Z,0.54
2023-04-10T05:48:12.729Z,0.53
2023-04-10T05:49:12.779Z,0.53
2023-04-10T05:50:12.766Z,0.54
2023-04-10T05:51:12.810Z,0.54
2023-04-10T05:52:12.784Z,0.54
2023-04-10T05:53:12.797Z,0.55
2023-04-10T05:54:12.808Z,0.53
2023-04-10T05:55:12.810Z,0.54
2023-04-10T05:56:12.829Z,0.55
2023-04-10T05:57:12.836Z,0.55
2023-04-10T05:58:12.856Z,0.55
2023-04-10T05:59:12.880Z,0.54
2023-04-10T06:00:12.886Z,0.54
2023-04-10T06:01:12.894Z,0.54
2023-04-10T06:02:12.950Z,0.54
2023-04-10T06:03:12.990Z,0.54
2023-04-10T06:04:13.084Z,0.55
2023-04-10T06:05:12.996Z,0.55
2023-04-10T06:06:12.950Z,0.55
2023-04-10T06:07:12.949Z,0.54
2023-04-10T06:08:12.966Z,0.55
2023-04-10T06:09:12.970Z,0.54
2023-04-10T06:10:12.981Z,0.54
2023-04-10T06:11:12.980Z,0.54
2023-04-10T06:12:12.984Z,0.55
2023-04-10T06:13:12.994Z,0.55
2023-04-10T06:14:12.999Z,0.54
2023-04-10T06:15:13.008Z,0.54
2023-04-10T06:16:13.022Z,0.55
2023-04-10T06:17:13.043Z,0.54
2023-04-10T06:18:13.034Z,0.54
2023-04-10T06:19:13.047Z,0.55
2023-04-10T06:20:13.060Z,0.53
2023-04-10T06:21:13.083Z,0.54
2023-04-10T06:22:13.078Z,0.54
2023-04-10T06:23:13.094Z,0.54
2023-04-10T06:24:13.108Z,0.54
2023-04-10T06:25:13.114Z,0.54
2023-04-10T06:26:13.114Z,0.54
2023-04-10T06:27:13.118Z,0.54
2023-04-10T06:28:13.138Z,0.53
2023-04-10T06:29:13.133Z,0.53
2023-04-10T06:30:13.158Z,0.53
2023-04-10T06:31:13.181Z,0.54
2023-04-10T06:32:13.164Z,0.55
2023-04-10T06:33:13.187Z,0.54
2023-04-10T06:34:13.204Z,0.54
2023-04-10T06:35:13.215Z,0.54
2023-04-10T06:36:13.244Z,0.53
2023-04-10T06:37:13.240Z,0.53
2023-04-10T06:38:13.219Z,0.53
2023-04-10T06:39:13.230Z,0.53
2023-04-10T06:40:13.242Z,0.53
2023-04-10T06:41:13.250Z,0.53
2023-04-10T06:42:13.258Z,0.53
2023-04-10T06:43:13.258Z,0.53
2023-04-10T06:44:13.278Z,0.54
2023-04-10T06:45:13.277Z,0.53
2023-04-10T06:46:13.330Z,0.53
2023-04-10T06:47:13.309Z,0.53
2023-04-10T06:48:13.302Z,0.53
2023-04-10T06:49:13.314Z,0.54
2023-04-10T06:50:13.318Z,0.54
2023-04-10T06:51:13.322Z,0.53
2023-04-10T06:52:13.333Z,0.53
2023-04-10T06:53:13.368Z,0.54
2023-04-10T06:54:13.346Z,0.53
2023-04-10T06:55:13.395Z,0.53
2023-04-10T06:56:13.373Z,0.54
2023-04-10T06:57:13.377Z,0.53
2023-04-10T06:58:13.376Z,0.54
2023-04-10T06:59:13.387Z,0.53
2023-04-10T07:00:13.392Z,0.53
2023-04-10T07:01:13.476Z,0.52
2023-04-10T07:02:13.490Z,0.54
2023-04-10T07:03:13.457Z,0.54
2023-04-10T07:04:13.504Z,0.53
2023-04-10T07:05:13.420Z,0.53
2023-04-10T07:06:13.431Z,0.53
2023-04-10T07:07:13.459Z,0.52
2023-04-10T07:08:13.453Z,0.53
2023-04-10T07:09:13.487Z,0.54
2023-04-10T07:10:13.484Z,0.52
2023-04-10T07:11:13.487Z,0.53
2023-04-10T07:12:13.496Z,0.53
2023-04-10T07:13:13.511Z,0.53
2023-04-10T07:14:13.549Z,0.53
2023-04-10T07:15:13.519Z,0.54
2023-04-10T07:16:13.547Z,0.52
2023-04-10T07:17:13.560Z,0.52
2023-04-10T07:18:13.555Z,0.52
2023-04-10T07:19:13.563Z,0.52
2023-04-10T07:20:13.564Z,0.53
2023-04-10T07:21:13.570Z,0.52
2023-04-10T07:22:13.592Z,0.52
2023-04-10T07:23:13.598Z,0.52
2023-04-10T07:24:13.614Z,0.53
2023-04-10T07:25:13.682Z,0.52
2023-04-10T07:26:13.638Z,0.52
2023-04-10T07:27:13.643Z,0.52
2023-04-10T07:28:13.661Z,0.53
2023-04-10T07:29:13.667Z,0.51
2023-04-10T07:30:14.051Z,0.52
2023-04-10T07:31:13.714Z,0.52
2023-04-10T07:32:13.779Z,0.52
2023-04-10T07:33:13.828Z,0.52
2023-04-10T07:34:13.719Z,0.52
2023-04-10T07:35:13.724Z,0.51
2023-04-10T07:36:13.787Z,0.51
2023-04-10T07:37:13.734Z,0.51
2023-04-10T07:38:13.750Z,0.52
2023-04-10T07:39:13.755Z,0.51
2023-04-10T07:40:13.762Z,0.52
2023-04-10T07:41:13.797Z,0.51
2023-04-10T07:42:13.779Z,0.52
2023-04-10T07:43:13.791Z,0.52
2023-04-10T07:44:13.801Z,0.51
2023-04-10T07:45:13.822Z,0.52
2023-04-10T07:46:13.869Z,0.51
2023-04-10T07:47:13.816Z,0.52
2023-04-10T07:48:13.829Z,0.51
2023-04-10T07:49:13.815Z,0.51
2023-04-10T07:50:13.817Z,0.52
2023-04-10T07:51:13.821Z,0.53
2023-04-10T07:52:13.838Z,0.52
2023-04-10T07:53:13.840Z,0.53
2023-04-10T07:54:13.852Z,0.50
2023-04-10T07:55:13.843Z,0.52
2023-04-10T07:56:13.852Z,0.51
2023-04-10T07:57:13.904Z,0.51
2023-04-10T07:58:13.883Z,0.52
2023-04-10T07:59:13.886Z,0.51
2023-04-10T08:00:13.878Z,0.52
2023-04-10T08:01:13.886Z,0.52
2023-04-10T08:02:13.979Z,0.51
2023-04-10T08:03:14.072Z,0.52
2023-04-10T08:04:14.002Z,0.52
2023-04-10T08:05:13.942Z,0.53
2023-04-10T08:06:13.912Z,0.54
2023-04-10T08:07:13.905Z,0.52
2023-04-10T08:08:13.909Z,0.53
2023-04-10T08:09:13.930Z,0.52
2023-04-10T08:10:13.925Z,0.51
2023-04-10T08:11:13.914Z,0.51
2023-04-10T08:12:13.924Z,0.52
2023-04-10T08:13:13.947Z,0.52
2023-04-10T08:14:13.932Z,0.51
2023-04-10T08:15:14.128Z,0.51
2023-04-10T08:16:14.148Z,0.51
2023-04-10T08:17:14.143Z,0.52
2023-04-10T08:18:14.160Z,0.51
2023-04-10T08:19:14.149Z,0.51
2023-04-10T08:20:14.156Z,0.52
2023-04-10T08:21:14.152Z,0.53
2023-04-10T08:22:14.156Z,0.52
2023-04-10T08:24:14.158Z,0.52
2023-04-10T08:25:14.143Z,0.52
2023-04-10T08:26:14.142Z,0.52
2023-04-10T08:27:14.131Z,0.52
2023-04-10T08:28:14.138Z,0.52
2023-04-10T08:29:14.137Z,0.51
2023-04-10T08:30:14.107Z,0.51
2023-04-10T08:31:14.137Z,0.52
2023-04-10T08:32:14.091Z,0.51
2023-04-10T08:33:14.076Z,0.52
2023-04-10T08:34:14.078Z,0.50
2023-04-10T08:35:14.063Z,0.52
2023-04-10T08:36:14.075Z,0.52
2023-04-10T08:37:14.045Z,0.50
2023-04-10T08:38:14.818Z,0.52
2023-04-10T08:39:14.042Z,0.52
2023-04-10T08:40:14.031Z,0.51
2023-04-10T08:41:14.021Z,0.51
2023-04-10T08:42:14.014Z,0.51
2023-04-10T08:43:14.006Z,0.52
2023-04-10T08:44:14.037Z,0.51
2023-04-10T08:45:14.024Z,0.52
2023-04-10T08:46:14.049Z,0.51
2023-04-10T08:47:13.979Z,0.52
2023-04-10T08:48:13.972Z,0.52
2023-04-10T08:49:13.962Z,0.50
2023-04-10T08:50:13.961Z,0.51
2023-04-10T08:51:18.684Z,0.51
2023-04-10T08:52:13.939Z,0.51
2023-04-10T08:53:13.932Z,0.51
2023-04-10T08:54:13.927Z,0.52
2023-04-10T08:55:13.919Z,0.52
2023-04-10T08:56:13.908Z,0.52
2023-04-10T08:57:13.897Z,0.51
2023-04-10T08:58:13.906Z,0.51
2023-04-10T08:59:13.892Z,0.51
2023-04-10T09:00:22.974Z,0.50
2023-04-10T09:01:13.968Z,0.50
2023-04-10T09:02:13.909Z,0.51
2023-04-10T09:03:13.975Z,0.51
2023-04-10T09:04:13.963Z,0.52
2023-04-10T09:05:13.846Z,0.53
2023-04-10T09:06:13.846Z,0.51
2023-04-10T09:07:13.834Z,0.52
2023-04-10T09:08:13.842Z,0.52
2023-04-10T09:09:13.827Z,0.52
2023-04-10T09:10:13.812Z,0.50
2023-04-10T09:11:13.816Z,0.51
2023-04-10T09:12:13.809Z,0.51
2023-04-10T09:13:13.792Z,0.52
2023-04-10T09:14:13.781Z,0.51
2023-04-10T09:15:13.785Z,0.51
2023-04-10T09:16:13.873Z,0.51
2023-04-10T09:17:13.788Z,0.51
2023-04-10T09:18:13.765Z,0.52
2023-04-10T09:19:13.746Z,0.52
2023-04-10T09:20:13.737Z,0.51
2023-04-10T09:21:13.739Z,0.51
2023-04-10T09:22:13.727Z,0.50
2023-04-10T09:23:13.722Z,0.51
2023-04-10T09:24:13.706Z,0.51
2023-04-10T09:25:13.707Z,0.51
2023-04-10T09:26:13.697Z,0.51
2023-04-10T09:27:13.732Z,0.53
2023-04-10T09:28:13.679Z,0.51
2023-04-10T09:29:13.674Z,0.51
2023-04-10T09:30:13.664Z,0.52
2023-04-10T09:31:13.731Z,0.50
2023-04-10T09:32:13.676Z,0.52
2023-04-10T09:33:13.673Z,0.52
2023-04-10T09:34:13.657Z,0.51
2023-04-10T09:35:13.660Z,0.50
2023-04-10T09:36:13.674Z,0.51
2023-04-10T09:37:13.624Z,0.52
2023-04-10T09:38:13.624Z,0.53
2023-04-10T09:39:13.646Z,0.53
2023-04-10T09:40:13.604Z,0.52
2023-04-10T09:41:13.596Z,0.52
2023-04-10T09:42:13.586Z,0.52
2023-04-10T09:43:13.608Z,0.52
2023-04-10T09:44:13.570Z,0.53
2023-04-10T09:45:13.559Z,0.53
2023-04-10T09:46:13.594Z,0.51
2023-04-10T09:47:13.551Z,0.51
2023-04-10T09:48:13.568Z,0.51
2023-04-10T09:49:13.559Z,0.52
2023-04-10T09:50:13.544Z,0.52
2023-04-10T09:51:13.521Z,0.52
2023-04-10T09:52:13.521Z,0.52
2023-04-10T09:53:13.519Z,0.52
2023-04-10T09:54:13.512Z,0.52
2023-04-10T09:55:13.501Z,0.50
2023-04-10T09:56:13.496Z,0.52
2023-04-10T09:57:13.481Z,0.51
2023-04-10T09:58:13.479Z,0.53
2023-04-10T09:59:13.472Z,0.53
2023-04-10T10:00:13.460Z,0.53
2023-04-10T10:01:13.455Z,0.52
2023-04-10T10:02:13.519Z,0.52
2023-04-10T10:03:13.623Z,0.53
2023-04-10T10:04:13.465Z,0.53
2023-04-10T10:05:13.464Z,0.52
2023-04-10T10:06:13.415Z,0.54
2023-04-10T10:07:13.408Z,0.53
2023-04-10T10:08:13.414Z,0.52
2023-04-10T10:09:13.393Z,0.53
2023-04-10T10:10:13.394Z,0.53
2023-04-10T10:11:13.376Z,0.53
2023-04-10T10:12:13.369Z,0.53
2023-04-10T10:13:13.393Z,0.53
2023-04-10T10:14:13.361Z,0.51
2023-04-10T10:15:13.359Z,0.54
2023-04-10T10:16:13.359Z,0.55
2023-04-10T10:17:13.344Z,0.54
2023-04-10T10:18:13.346Z,0.53
2023-04-10T10:19:13.321Z,0.52
2023-04-10T10:20:13.313Z,0.52
2023-04-10T10:21:13.342Z,0.51
2023-04-10T10:22:13.306Z,0.51
2023-04-10T10:23:13.316Z,0.52
2023-04-10T10:24:13.301Z,0.52
2023-04-10T10:25:13.293Z,0.52
2023-04-10T10:26:13.271Z,0.51
2023-04-10T10:27:13.271Z,0.53
2023-04-10T10:28:13.321Z,0.53
2023-04-10T10:29:13.281Z,0.52
2023-04-10T10:30:28.121Z,0.52
2023-04-10T10:31:13.276Z,0.53
2023-04-10T10:32:13.261Z,0.53
2023-04-10T10:33:13.255Z,0.53
2023-04-10T10:34:13.246Z,0.53
2023-04-10T10:35:13.235Z,0.54
2023-04-10T10:36:14.177Z,0.55
2023-04-10T10:37:13.250Z,0.56
2023-04-10T10:38:13.214Z,0.55
2023-04-10T10:39:13.217Z,0.56
2023-04-10T10:40:13.204Z,0.57
2023-04-10T10:41:13.199Z,0.56
2023-04-10T10:42:13.186Z,0.55
2023-04-10T10:43:13.177Z,0.56
2023-04-10T10:44:13.196Z,0.57
2023-04-10T10:45:13.176Z,0.58
2023-04-10T10:46:13.226Z,0.58
2023-04-10T10:47:13.151Z,0.56
2023-04-10T10:48:13.148Z,0.56
2023-04-10T10:49:13.142Z,0.57
2023-04-10T10:50:13.165Z,0.56
2023-04-10T10:51:13.134Z,0.57
2023-04-10T10:52:13.120Z,0.57
2023-04-10T10:53:13.226Z,0.57
2023-04-10T10:54:13.104Z,0.55
2023-04-10T10:55:13.095Z,0.56
2023-04-10T10:56:13.093Z,0.58
2023-04-10T10:57:13.084Z,0.58
2023-04-10T10:58:13.077Z,0.59
2023-04-10T10:59:13.076Z,0.58
2023-04-10T11:00:13.069Z,0.58
2023-04-10T11:01:13.072Z,0.58
2023-04-10T11:02:13.113Z,0.58
2023-04-10T11:03:13.251Z,0.58
2023-04-10T11:04:13.067Z,0.59
2023-04-10T11:05:13.036Z,0.58
2023-04-10T11:06:13.024Z,0.59
2023-04-10T11:07:13.114Z,0.58
2023-04-10T11:08:13.014Z,0.59
2023-04-10T11:09:13.028Z,0.59
2023-04-10T11:10:13.004Z,0.58
2023-04-10T11:11:13.008Z,0.59
2023-04-10T11:12:12.987Z,0.59
2023-04-10T11:13:12.977Z,0.60
2023-04-10T11:14:12.971Z,0.59
2023-04-10T11:15:12.969Z,0.58
2023-04-10T11:16:12.985Z,0.58
2023-04-10T11:17:12.957Z,0.59
2023-04-10T11:18:12.938Z,0.59
2023-04-10T11:19:15.424Z,0.61
2023-04-10T11:20:12.935Z,0.61
2023-04-10T11:21:12.921Z,0.60
2023-04-10T11:22:12.925Z,0.61
2023-04-10T11:23:12.940Z,0.60
2023-04-10T11:24:12.901Z,0.60
2023-04-10T11:25:12.929Z,0.61
2023-04-10T11:26:12.882Z,0.61
2023-04-10T11:27:12.877Z,0.60
2023-04-10T11:28:12.869Z,0.61
2023-04-10T11:29:12.860Z,0.61
2023-04-10T11:30:12.853Z,0.62
2023-04-10T11:31:12.853Z,0.61
2023-04-10T11:32:12.931Z,0.62
2023-04-10T11:33:12.834Z,0.63
2023-04-10T11:34:12.828Z,0.63
2023-04-10T11:35:12.820Z,0.61
2023-04-10T11:36:12.846Z,0.63
2023-04-10T11:37:12.809Z,0.62
2023-04-10T11:38:12.809Z,0.62
2023-04-10T11:39:12.788Z,0.61
2023-04-10T11:40:12.792Z,0.62
2023-04-10T11:41:12.832Z,0.63
2023-04-10T11:42:12.769Z,0.62
2023-04-10T11:43:12.761Z,0.62
2023-04-10T11:44:12.753Z,0.62
2023-04-10T11:45:12.743Z,0.62
2023-04-10T11:46:12.815Z,0.62
2023-04-10T11:47:12.737Z,0.63
2023-04-10T11:48:12.720Z,0.63
2023-04-10T11:49:12.723Z,0.64
2023-04-10T11:50:12.715Z,0.63
2023-04-10T11:51:12.704Z,0.64
2023-04-10T11:52:12.691Z,0.65
2023-04-10T11:53:12.691Z,0.64
2023-04-10T11:54:12.690Z,0.63
2023-04-10T11:55:12.680Z,0.63
2023-04-10T11:56:12.678Z,0.63
2023-04-10T11:57:12.714Z,0.63
2023-04-10T11:58:12.662Z,0.64
2023-04-10T11:59:12.657Z,0.63
2023-04-10T12:00:12.760Z,0.63
2023-04-10T12:01:12.650Z,0.63
2023-04-10T12:02:12.728Z,0.64
2023-04-10T12:03:12.726Z,0.66
2023-04-10T12:04:12.756Z,0.65
2023-04-10T12:05:12.734Z,0.66
2023-04-10T12:06:12.618Z,0.66
2023-04-10T12:07:12.606Z,0.66
2023-04-10T12:08:12.605Z,0.66
2023-04-10T12:09:12.600Z,0.65
2023-04-10T12:10:12.648Z,0.63
2023-04-10T12:11:12.600Z,0.65
2023-04-10T12:12:12.587Z,0.65
2023-04-10T12:13:12.609Z,0.65
2023-04-10T12:14:12.570Z,0.66
2023-04-10T12:15:12.546Z,0.65
2023-04-10T12:16:12.606Z,0.65
2023-04-10T12:17:12.533Z,0.65
2023-04-10T12:18:12.527Z,0.66
2023-04-10T12:19:12.515Z,0.64
2023-04-10T12:20:12.579Z,0.63
2023-04-10T12:21:12.525Z,0.66
2023-04-10T12:22:12.498Z,0.66
2023-04-10T12:23:12.539Z,0.65
2023-04-10T12:24:12.482Z,0.65
2023-04-10T12:25:12.486Z,0.65
2023-04-10T12:26:12.499Z,0.64
2023-04-10T12:27:12.465Z,0.65
2023-04-10T12:28:12.459Z,0.65
2023-04-10T12:29:12.487Z,0.65
2023-04-10T12:30:12.487Z,0.65
2023-04-10T12:31:12.497Z,0.65
2023-04-10T12:32:12.436Z,0.65
2023-04-10T12:33:12.436Z,0.65
2023-04-10T12:34:12.419Z,0.65
2023-04-10T12:35:12.413Z,0.63
2023-04-10T12:36:12.411Z,0.64
2023-04-10T12:37:12.413Z,0.64
2023-04-10T12:38:12.401Z,0.64
2023-04-10T12:39:12.394Z,0.64
2023-04-10T12:40:12.378Z,0.63
2023-04-10T12:41:12.399Z,0.65
2023-04-10T12:42:12.366Z,0.65
2023-04-10T12:43:12.370Z,0.64
2023-04-10T12:44:12.359Z,0.64
2023-04-10T12:45:12.373Z,0.64
2023-04-10T12:46:12.348Z,0.65
2023-04-10T12:47:12.332Z,0.64
2023-04-10T12:48:12.337Z,0.64
2023-04-10T12:49:12.335Z,0.65
2023-04-10T12:50:12.490Z,0.66
2023-04-10T12:51:12.333Z,0.64
2023-04-10T12:52:12.336Z,0.66
2023-04-10T12:53:12.342Z,0.64
2023-04-10T12:54:12.353Z,0.64
2023-04-10T12:55:12.381Z,0.65
2023-04-10T12:56:12.363Z,0.65
2023-04-10T12:57:12.373Z,0.66
2023-04-10T12:58:12.381Z,0.65
2023-04-10T12:59:12.388Z,0.64
2023-04-10T13:00:12.417Z,0.64
2023-04-10T13:01:12.434Z,0.64
2023-04-10T13:02:12.487Z,0.64
2023-04-10T13:03:12.546Z,0.63
2023-04-10T13:04:12.522Z,0.64
2023-04-10T13:05:12.466Z,0.64
2023-04-10T13:06:12.455Z,0.64
2023-04-10T13:07:12.457Z,0.64
2023-04-10T13:08:12.466Z,0.63
2023-04-10T13:09:12.490Z,0.65
2023-04-10T13:10:12.481Z,0.66
2023-04-10T13:11:12.499Z,0.65
2023-04-10T13:12:12.532Z,0.64
2023-04-10T13:13:12.501Z,0.65
2023-04-10T13:14:12.510Z,0.65
2023-04-10T13:15:12.518Z,0.64
2023-04-10T13:16:12.560Z,0.63
2023-04-10T13:17:12.558Z,0.65
2023-04-10T13:18:12.577Z,0.65
2023-04-10T13:19:12.538Z,0.63